Time,TemperatureF,DewpointF,PressureIn,WindDirection,WindDirectionDegrees,WindSpeedMPH,WindSpeedGustMPH,Humidity,HourlyPrecipIn,Conditions,Clouds,dailyrainin,SoftwareType,DateUTC
2013-07-09 00:07:00,64.1,58.0,29.99,NNW,329,3.0,5.0,81,0.00,,,0.00,weatherlink.com 1.10,2013-07-09 07:07:00,
2013-07-09 00:22:00,64.1,59.0,30.00,NNW,333,6.0,8.0,82,0.00,,,0.00,weatherlink.com 1.10,2013-07-09 07:22:00,
2013-07-09 00:37:00,63.6,58.0,30.00,NNW,341,5.0,6.0,82,0.00,,,0.00,weatherlink.com 1.10,2013-07-09 07:37:00,
2013-07-09 01:07:00,62.8,58.0,30.00,NNW,331,4.0,6.0,83,0.00,,,0.00,weatherlink.com 1.10,2013-07-09 08:07:00,
2013-07-09 01:22:00,61.8,57.0,30.00,NNW,335,5.0,6.0,85,0.00,,,0.00,weatherlink.com 1.10,2013-07-09 08:22:00,
2013-07-09 01:37:00,61.1,57.0,30.00,NNW,341,6.0,7.0,86,0.00,,,0.00,weatherlink.com 1.10,2013-07-09 08:37:00,
2013-07-09 01:52:00,60.9,57.0,30.00,NNW,336,5.0,7.0,86,0.00,,,0.00,weatherlink.com 1.10,2013-07-09 08:52:00,
2013-07-09 02:07:00,60.5,57.0,30.01,NNW,327,6.0,6.0,87,0.00,,,0.00,weatherlink.com 1.10,2013-07-09 09:07:00,
2013-07-09 02:22:00,60.3,57.0,30.01,NNW,333,5.0,7.0,87,0.00,,,0.00,weatherlink.com 1.10,2013-07-09 09:22:00,
2013-07-09 02:37:00,60.1,57.0,30.01,NNW,335,4.0,5.0,88,0.00,,,0.00,weatherlink.com 1.10,2013-07-09 09:37:00,
2013-07-09 02:52:00,59.6,56.0,30.02,NNW,341,5.0,6.0,88,0.00,,,0.00,weatherlink.com 1.10,2013-07-09 09:52:00,
2013-07-09 03:07:00,59.1,56.0,30.02,NNW,329,5.0,7.0,89,0.00,,,0.00,weatherlink.com 1.10,2013-07-09 10:07:00,
2013-07-09 03:22:00,58.6,55.0,30.02,NNW,327,7.0,8.0,89,0.00,,,0.00,weatherlink.com 1.10,2013-07-09 10:22:00,
2013-07-09 03:37:00,58.6,55.0,30.02,NNW,331,5.0,6.0,89,0.00,,,0.00,weatherlink.com 1.10,2013-07-09 10:37:00,
2013-07-09 03:52:00,57.9,55.0,30.02,NNW,333,5.0,7.0,91,0.00,,,0.00,weatherlink.com 1.10,2013-07-09 10:52:00,
2013-07-09 04:07:00,57.6,55.0,30.02,NNW,341,4.0,6.0,90,0.00,,,0.00,weatherlink.com 1.10,2013-07-09 11:07:00,
2013-07-09 04:22:00,57.2,55.0,30.02,NNW,332,5.0,5.0,91,0.00,,,0.00,weatherlink.com 1.10,2013-07-09 11:22:00,
2013-07-09 04:37:00,56.9,55.0,30.02,NNW,335,5.0,6.0,92,0.00,,,0.00,weatherlink.com 1.10,2013-07-09 11:37:00,
2013-07-09 04:52:00,56.5,54.0,30.02,NNW,340,4.0,6.0,92,0.00,,,0.00,weatherlink.com 1.10,2013-07-09 11:52:00,
2013-07-09 05:07:00,56.5,54.0,30.03,NNW,335,4.0,6.0,92,0.00,,,0.00,weatherlink.com 1.10,2013-07-09 12:07:00,
2013-07-09 05:22:00,56.2,54.0,30.03,NNW,339,6.0,7.0,92,0.00,,,0.00,weatherlink.com 1.10,2013-07-09 12:22:00,
2013-07-09 05:37:00,56.2,54.0,30.03,NNW,343,4.0,7.0,92,0.00,,,0.00,weatherlink.com 1.10,2013-07-09 12:37:00,
2013-07-09 05:53:00,56.0,54.0,30.04,NNW,330,5.0,6.0,92,0.00,,,0.00,weatherlink.com 1.10,2013-07-09 12:53:00,
2013-07-09 06:08:00,56.6,54.0,30.04,NNW,336,4.0,6.0,92,0.00,,,0.00,weatherlink.com 1.10,2013-07-09 13:08:00,
2013-07-09 06:23:00,56.7,54.0,30.04,NNW,340,4.0,6.0,91,0.00,,,0.00,weatherlink.com 1.10,2013-07-09 13:23:00,
2013-07-09 06:38:00,57.0,55.0,30.05,NNW,335,2.0,4.0,92,0.00,,,0.00,weatherlink.com 1.10,2013-07-09 13:38:00,
2013-07-09 06:53:00,57.7,55.0,30.05,NNW,336,2.0,3.0,92,0.00,,,0.00,weatherlink.com 1.10,2013-07-09 13:53:00,
2013-07-09 07:08:00,58.7,56.0,30.05,NNW,336,1.0,3.0,90,0.00,,,0.00,weatherlink.com 1.10,2013-07-09 14:08:00,
2013-07-09 07:23:00,59.2,56.0,30.05,NNW,336,0.0,1.0,89,0.00,,,0.00,weatherlink.com 1.10,2013-07-09 14:23:00,
2013-07-09 07:38:00,60.0,57.0,30.05,NNW,342,0.0,1.0,88,0.00,,,0.00,weatherlink.com 1.10,2013-07-09 14:38:00,
2013-07-09 07:53:00,61.1,57.0,30.05,NNW,342,0.0,1.0,86,0.00,,,0.00,weatherlink.com 1.10,2013-07-09 14:53:00,
2013-07-09 08:08:00,62.0,57.0,30.05,NNW,342,0.0,1.0,84,0.00,,,0.00,weatherlink.com 1.10,2013-07-09 15:08:00,
2013-07-09 08:23:00,63.3,58.0,30.05,NNW,342,0.0,2.0,83,0.00,,,0.00,weatherlink.com 1.10,2013-07-09 15:23:00,
2013-07-09 08:38:00,64.7,58.0,30.05,NNW,342,1.0,2.0,79,0.00,,,0.00,weatherlink.com 1.10,2013-07-09 15:38:00,
2013-07-09 08:53:00,65.1,58.0,30.05,NNW,341,1.0,2.0,79,0.00,,,0.00,weatherlink.com 1.10,2013-07-09 15:53:00,
2013-07-09 09:08:00,66.5,58.0,30.05,NW,311,0.0,2.0,74,0.00,,,0.00,weatherlink.com 1.10,2013-07-09 16:08:00,
2013-07-09 09:23:00,68.1,59.0,30.05,WNW,301,1.0,3.0,73,0.00,,,0.00,weatherlink.com 1.10,2013-07-09 16:23:00,
2013-07-09 09:38:00,69.0,60.0,30.04,WNW,293,1.0,2.0,72,0.00,,,0.00,weatherlink.com 1.10,2013-07-09 16:38:00,
2013-07-09 09:53:00,70.2,60.0,30.04,WNW,282,0.0,2.0,70,0.00,,,0.00,weatherlink.com 1.10,2013-07-09 16:53:00,
2013-07-09 10:08:00,71.3,60.0,30.03,West,281,1.0,2.0,68,0.00,,,0.00,weatherlink.com 1.10,2013-07-09 17:08:00,
2013-07-09 10:23:00,72.7,61.0,30.03,West,279,1.0,2.0,66,0.00,,,0.00,weatherlink.com 1.10,2013-07-09 17:23:00,
2013-07-09 10:38:00,73.4,61.0,30.02,SSW,212,1.0,3.0,65,0.00,,,0.00,weatherlink.com 1.10,2013-07-09 17:38:00,
2013-07-09 10:53:00,74.2,62.0,30.02,SSW,210,2.0,3.0,66,0.00,,,0.00,weatherlink.com 1.10,2013-07-09 17:53:00,
2013-07-09 11:08:00,74.2,61.0,30.01,South,190,0.0,4.0,64,0.00,,,0.00,weatherlink.com 1.10,2013-07-09 18:08:00,
2013-07-09 11:23:00,74.6,61.0,30.01,South,185,1.0,3.0,63,0.00,,,0.00,weatherlink.com 1.10,2013-07-09 18:23:00,
2013-07-09 11:38:00,75.7,61.0,30.00,SSW,202,2.0,3.0,61,0.00,,,0.00,weatherlink.com 1.10,2013-07-09 18:38:00,
2013-07-09 11:53:00,76.8,61.0,29.99,SW,217,2.0,5.0,58,0.00,,,0.00,weatherlink.com 1.10,2013-07-09 18:53:00,
2013-07-09 12:08:00,78.8,62.0,29.99,SW,229,1.0,5.0,57,0.00,,,0.00,weatherlink.com 1.10,2013-07-09 19:08:00,
2013-07-09 12:23:00,79.8,63.0,29.99,SW,214,2.0,7.0,56,0.00,,,0.00,weatherlink.com 1.10,2013-07-09 19:23:00,
2013-07-09 12:38:00,80.8,63.0,29.98,SW,231,0.0,7.0,54,0.00,,,0.00,weatherlink.com 1.10,2013-07-09 19:38:00,
2013-07-09 12:53:00,81.4,62.0,29.97,WSW,237,3.0,5.0,52,0.00,,,0.00,weatherlink.com 1.10,2013-07-09 19:53:00,
2013-07-09 13:08:00,83.1,63.0,29.97,SW,234,5.0,5.0,50,0.00,,,0.00,weatherlink.com 1.10,2013-07-09 20:08:00,
2013-07-09 13:24:00,83.5,62.0,29.96,SW,231,3.0,5.0,49,0.00,,,0.00,weatherlink.com 1.10,2013-07-09 20:24:00,
2013-07-09 13:42:00,84.5,63.0,29.96,SW,225,1.0,7.0,48,0.00,,,0.00,weatherlink.com 1.10,2013-07-09 20:42:00,
2013-07-09 13:54:00,84.6,62.0,29.95,SW,224,1.0,7.0,47,0.00,,,0.00,weatherlink.com 1.10,2013-07-09 20:54:00,
2013-07-09 14:09:00,84.8,62.0,29.95,SW,229,3.0,9.0,47,0.00,,,0.00,weatherlink.com 1.10,2013-07-09 21:09:00,
2013-07-09 14:24:00,85.3,63.0,29.94,WSW,251,5.0,7.0,47,0.00,,,0.00,weatherlink.com 1.10,2013-07-09 21:24:00,
2013-07-09 14:39:00,84.3,62.0,29.94,WSW,249,1.0,9.0,48,0.00,,,0.00,weatherlink.com 1.10,2013-07-09 21:39:00,
2013-07-09 14:54:00,84.9,62.0,29.93,WSW,244,1.0,12.0,47,0.00,,,0.00,weatherlink.com 1.10,2013-07-09 21:54:00,
2013-07-09 15:09:00,84.8,62.0,29.93,WSW,248,3.0,10.0,47,0.00,,,0.00,weatherlink.com 1.10,2013-07-09 22:09:00,
2013-07-09 15:24:00,85.6,62.0,29.92,WSW,250,1.0,11.0,46,0.00,,,0.00,weatherlink.com 1.10,2013-07-09 22:24:00,
2013-07-09 15:39:00,85.4,62.0,29.92,West,266,5.0,10.0,46,0.00,,,0.00,weatherlink.com 1.10,2013-07-09 22:39:00,
2013-07-09 15:54:00,84.8,63.0,29.92,SW,235,1.0,14.0,48,0.00,,,0.00,weatherlink.com 1.10,2013-07-09 22:54:00,
2013-07-09 16:09:00,85.4,63.0,29.91,WSW,253,2.0,9.0,47,0.00,,,0.00,weatherlink.com 1.10,2013-07-09 23:09:00,
2013-07-09 16:24:00,85.7,63.0,29.91,WSW,239,7.0,11.0,47,0.00,,,0.00,weatherlink.com 1.10,2013-07-09 23:24:00,
2013-07-09 16:39:00,85.6,64.0,29.91,SSW,213,3.0,9.0,48,0.00,,,0.00,weatherlink.com 1.10,2013-07-09 23:39:00,
2013-07-09 16:54:00,85.1,64.0,29.90,WSW,241,5.0,9.0,49,0.00,,,0.00,weatherlink.com 1.10,2013-07-09 23:54:00,
2013-07-09 17:09:00,84.8,64.0,29.89,WSW,258,7.0,10.0,49,0.00,,,0.00,weatherlink.com 1.10,2013-07-10 00:09:00,
2013-07-09 17:24:00,83.9,64.0,29.89,WSW,238,4.0,14.0,51,0.00,,,0.00,weatherlink.com 1.10,2013-07-10 00:24:00,
2013-07-09 17:39:00,83.7,64.0,29.89,WSW,258,2.0,11.0,51,0.00,,,0.00,weatherlink.com 1.10,2013-07-10 00:39:00,
2013-07-09 17:54:00,83.8,63.0,29.89,SW,236,3.0,7.0,50,0.00,,,0.00,weatherlink.com 1.10,2013-07-10 00:54:00,
2013-07-09 18:09:00,84.8,63.0,29.89,SSW,209,0.0,8.0,48,0.00,,,0.00,weatherlink.com 1.10,2013-07-10 01:09:00,
2013-07-09 18:24:00,84.1,62.0,29.89,WSW,258,5.0,8.0,48,0.00,,,0.00,weatherlink.com 1.10,2013-07-10 01:24:00,
2013-07-09 18:39:00,82.4,61.0,29.88,WSW,241,2.0,8.0,49,0.00,,,0.00,weatherlink.com 1.10,2013-07-10 01:39:00,
2013-07-09 18:54:00,82.7,60.0,29.88,WSW,246,0.0,11.0,47,0.00,,,0.00,weatherlink.com 1.10,2013-07-10 01:54:00,
2013-07-09 19:09:00,84.5,61.0,29.88,SW,218,0.0,9.0,45,0.00,,,0.00,weatherlink.com 1.10,2013-07-10 02:09:00,
2013-07-09 19:24:00,84.4,60.0,29.89,WSW,244,4.0,9.0,44,0.00,,,0.00,weatherlink.com 1.10,2013-07-10 02:24:00,
2013-07-09 19:39:00,84.0,60.0,29.89,WSW,250,2.0,9.0,44,0.00,,,0.00,weatherlink.com 1.10,2013-07-10 02:39:00,
2013-07-09 19:54:00,83.6,59.0,29.89,WSW,251,0.0,13.0,44,0.00,,,0.00,weatherlink.com 1.10,2013-07-10 02:54:00,
2013-07-09 20:09:00,83.0,60.0,29.89,SSW,196,3.0,10.0,45,0.00,,,0.00,weatherlink.com 1.10,2013-07-10 03:09:00,
2013-07-09 20:24:00,82.4,59.0,29.89,West,265,1.0,9.0,45,0.00,,,0.00,weatherlink.com 1.10,2013-07-10 03:24:00,
2013-07-09 20:39:00,82.2,59.0,29.89,WNW,300,4.0,7.0,45,0.00,,,0.00,weatherlink.com 1.10,2013-07-10 03:39:00,
2013-07-09 20:54:00,81.6,59.0,29.90,NW,316,0.0,4.0,46,0.00,,,0.00,weatherlink.com 1.10,2013-07-10 03:54:00,
2013-07-09 21:09:00,81.0,58.0,29.90,North,6,0.0,3.0,46,0.00,,,0.00,weatherlink.com 1.10,2013-07-10 04:09:00,
2013-07-09 21:24:00,80.0,59.0,29.91,West,270,0.0,7.0,49,0.00,,,0.00,weatherlink.com 1.10,2013-07-10 04:24:00,
2013-07-09 21:39:00,79.0,59.0,29.92,SW,229,0.0,3.0,51,0.00,,,0.00,weatherlink.com 1.10,2013-07-10 04:39:00,
2013-07-09 21:54:00,77.6,59.0,29.93,WSW,239,1.0,2.0,53,0.00,,,0.00,weatherlink.com 1.10,2013-07-10 04:54:00,
2013-07-09 22:09:00,77.1,61.0,29.93,SSW,211,0.0,6.0,57,0.00,,,0.00,weatherlink.com 1.10,2013-07-10 05:09:00,
2013-07-09 22:24:00,76.7,61.0,29.94,WSW,242,1.0,5.0,58,0.00,,,0.00,weatherlink.com 1.10,2013-07-10 05:24:00,
2013-07-09 22:39:00,76.0,61.0,29.94,SW,228,0.0,8.0,60,0.00,,,0.00,weatherlink.com 1.10,2013-07-10 05:39:00,
2013-07-09 22:54:00,75.4,61.0,29.94,SW,221,2.0,7.0,61,0.00,,,0.00,weatherlink.com 1.10,2013-07-10 05:54:00,
2013-07-09 23:09:00,74.8,61.0,29.94,WSW,246,2.0,7.0,63,0.00,,,0.00,weatherlink.com 1.10,2013-07-10 06:09:00,
2013-07-09 23:24:00,73.9,61.0,29.94,SW,227,3.0,10.0,65,0.00,,,0.00,weatherlink.com 1.10,2013-07-10 06:24:00,
2013-07-09 23:39:00,73.4,62.0,29.94,WSW,237,0.0,7.0,67,0.00,,,0.00,weatherlink.com 1.10,2013-07-10 06:39:00,
2013-07-09 23:54:00,73.2,61.0,29.95,SW,217,5.0,9.0,65,0.00,,,0.00,weatherlink.com 1.10,2013-07-10 06:54:00,